Time;durP1;ratioP1;P1;durP2;ratioP2;P2;SDS_P1;SDS_P2;PMS_P1;PMS_P2;Temp;Humidity;BMP_temperature;BMP_pressure;BME280_temperature;BME280_humidity;BME280_pressure;Samples;Min_cycle;Max_cycle;Signal;HPM_P1;HPM_P2
2022/05/24 00:02:25;;;;;;;3.08;1.48;;;19.30;88.40;;;;;;5073972;28;20428;-61
2022/05/24 00:04:50;;;;;;;4.10;1.58;;;19.30;88.70;;;;;;5073634;28;20024;-59
2022/05/24 00:07:16;;;;;;;7.25;1.70;;;19.20;87.10;;;;;;5074114;28;20031;-59
2022/05/24 00:09:41;;;;;;;6.30;1.73;;;19.10;86.70;;;;;;5073914;28;20024;-67
2022/05/24 00:12:07;;;;;;;6.07;1.90;;;19.10;87.10;;;;;;5073596;28;20070;-61
2022/05/24 00:17:17;;;;;;;4.55;1.45;;;19.10;88.30;;;;;;5073921;28;20090;-62
2022/05/24 00:19:43;;;;;;;6.55;1.65;;;19.20;88.30;;;;;;5073532;28;20432;-60
2022/05/24 00:22:09;;;;;;;9.00;1.92;;;19.20;87.70;;;;;;5073856;28;20095;-62
2022/05/24 00:24:34;;;;;;;5.45;1.33;;;19.10;87.10;;;;;;5055692;28;20044;-62
2022/05/24 00:27:00;;;;;;;3.20;1.33;;;19.10;87.80;;;;;;5073808;28;20029;-60
2022/05/24 00:29:26;;;;;;;4.70;1.63;;;19.10;88.70;;;;;;5073527;28;20025;-59
2022/05/24 00:31:52;;;;;;;4.45;1.52;;;19.10;87.50;;;;;;5073462;28;20027;-60
2022/05/24 00:34:18;;;;;;;2.30;1.20;;;19.10;88.60;;;;;;5073459;28;20116;-62
2022/05/24 00:36:43;;;;;;;3.95;1.15;;;19.10;88.60;;;;;;5073488;28;20079;-59
2022/05/24 00:39:09;;;;;;;4.75;1.10;;;19.10;88.20;;;;;;5073275;28;20035;-60
2022/05/24 00:41:41;;;;;;;4.45;1.20;;;19.00;87.60;;;;;;5073420;28;20027;-60
2022/05/24 00:44:12;;;;;;;;;;;19.00;88.00;;;;;;5073759;28;20378;-60
2022/05/24 00:46:53;;;;;;;2.38;1.02;;;19.00;87.90;;;;;;5073422;28;19949;-60
2022/05/24 00:49:45;;;;;;;3.95;1.52;;;19.00;88.20;;;;;;5073310;28;20048;-61
2022/05/24 00:52:18;;;;;;;2.92;1.02;;;19.00;88.30;;;;;;5062279;28;20460;-66
2022/05/24 00:54:44;;;;;;;3.13;1.10;;;19.00;88.50;;;;;;5073371;28;20024;-68
2022/05/24 00:57:21;;;;;;;5.43;1.60;;;18.90;88.10;;;;;;5073083;28;20103;-62
2022/05/24 00:59:53;;;;;;;5.57;1.73;;;18.90;88.30;;;;;;5073231;28;20127;-69
2022/05/24 01:02:18;;;;;;;3.77;0.97;;;18.90;87.80;;;;;;5072328;28;20032;-70
2022/05/24 01:04:45;;;;;;;4.68;1.52;;;18.90;87.70;;;;;;5072951;28;20267;-61
2022/05/24 01:07:11;;;;;;;4.00;1.15;;;18.80;87.90;;;;;;5072975;28;20025;-62
2022/05/24 01:09:58;;;;;;;5.20;1.27;;;18.90;88.10;;;;;;5073075;28;20031;-59
2022/05/24 01:12:34;;;;;;;3.92;1.15;;;18.90;88.20;;;;;;5072994;28;20032;-59
2022/05/24 01:15:05;;;;;;;4.63;1.38;;;18.90;88.00;;;;;;5071215;28;20090;-65
2022/05/24 01:17:31;;;;;;;4.57;1.48;;;18.90;88.70;;;;;;5068325;28;20024;-66
2022/05/24 01:19:58;;;;;;;4.85;1.08;;;18.90;89.00;;;;;;5056967;28;20025;-62
2022/05/24 01:22:57;;;;;;;4.97;1.42;;;18.90;88.90;;;;;;5052929;28;20025;-59
2022/05/24 01:25:44;;;;;;;6.18;1.55;;;18.90;88.00;;;;;;5052702;28;20116;-62
2022/05/24 01:28:16;;;;;;;4.10;1.27;;;18.80;87.80;;;;;;5052717;28;20035;-60
2022/05/24 01:30:42;;;;;;;6.60;1.70;;;18.70;87.20;;;;;;5052735;28;20022;-58
2022/05/24 01:36:10;;;;;;;7.90;1.95;;;18.60;87.20;;;;;;5052586;28;20032;-59
2022/05/24 01:38:45;;;;;;;3.58;1.55;;;18.50;87.20;;;;;;5052373;28;20086;-59
2022/05/24 01:41:16;;;;;;;6.15;1.35;;;18.50;86.80;;;;;;5052452;28;20497;-59
2022/05/24 01:43:43;;;;;;;5.32;1.33;;;18.60;88.90;;;;;;5051449;28;20029;-59
2022/05/24 01:46:11;;;;;;;4.22;1.38;;;18.50;87.10;;;;;;5052474;28;20082;-59
2022/05/24 01:48:46;;;;;;;4.55;1.42;;;18.50;87.80;;;;;;5052472;28;20478;-59
2022/05/24 01:51:13;;;;;;;5.43;1.35;;;18.50;87.80;;;;;;5052708;28;20025;-60
2022/05/24 01:53:46;;;;;;;4.82;1.33;;;18.50;88.10;;;;;;5052712;28;20025;-59
2022/05/24 01:56:16;;;;;;;5.15;1.35;;;18.60;89.20;;;;;;5052416;28;20033;-59
2022/05/24 01:58:49;;;;;;;7.25;1.77;;;18.40;87.90;;;;;;5052688;28;20025;-59
2022/05/24 02:01:27;;;;;;;5.65;1.33;;;18.40;87.60;;;;;;5052363;28;20024;-59
2022/05/24 02:03:52;;;;;;;6.88;1.65;;;18.40;88.40;;;;;;5052534;28;20096;-58
2022/05/24 02:06:25;;;;;;;6.18;1.25;;;18.40;88.20;;;;;;5052672;28;20110;-61
2022/05/24 02:08:52;;;;;;;6.85;1.33;;;18.40;88.20;;;;;;5052582;28;20021;-58
2022/05/24 02:11:23;;;;;;;5.97;1.27;;;18.40;88.00;;;;;;5052432;28;20044;-60
2022/05/24 02:13:50;;;;;;;5.15;1.02;;;18.40;88.20;;;;;;5052628;28;20037;-60
2022/05/24 02:16:22;;;;;;;5.28;1.08;;;18.30;88.10;;;;;;5056294;28;20020;-59
2022/05/24 02:18:50;;;;;;;5.50;1.30;;;18.30;88.80;;;;;;5038264;28;20078;-60
2022/05/24 02:21:16;;;;;;;6.22;1.45;;;18.40;89.00;;;;;;5056001;28;20579;-59
2022/05/24 02:23:49;;;;;;;8.15;1.45;;;18.30;87.90;;;;;;5056031;28;20037;-61
2022/05/24 02:26:17;;;;;;;4.68;1.10;;;18.20;87.90;;;;;;5055954;28;20048;-58
2022/05/24 02:28:43;;;;;;;6.05;1.40;;;18.30;88.20;;;;;;5055917;28;20029;-60
2022/05/24 02:31:13;;;;;;;7.35;1.58;;;18.20;88.20;;;;;;5056046;28;20421;-59
2022/05/24 02:33:39;;;;;;;7.63;1.50;;;18.20;87.90;;;;;;5055874;28;20033;-61
2022/05/24 02:36:06;;;;;;;6.78;1.30;;;18.10;87.60;;;;;;5055843;28;20044;-58
2022/05/24 02:38:32;;;;;;;7.28;1.95;;;18.10;88.40;;;;;;5055831;28;20033;-58
2022/05/24 02:43:42;;;;;;;3.95;1.02;;;18.20;88.80;;;;;;5055530;28;20052;-59
2022/05/24 02:46:09;;;;;;;5.30;1.20;;;18.20;89.00;;;;;;5055511;28;20025;-63
2022/05/24 02:48:36;;;;;;;4.72;1.10;;;18.20;88.80;;;;;;5055508;28;20017;-66
2022/05/24 02:51:03;;;;;;;4.20;1.08;;;18.10;88.10;;;;;;5055519;28;20112;-68
2022/05/24 02:53:29;;;;;;;5.07;1.02;;;18.20;88.80;;;;;;5055205;28;20033;-64
2022/05/24 02:55:54;;;;;;;6.95;1.45;;;18.20;88.80;;;;;;5065083;28;20039;-61
2022/05/24 02:58:20;;;;;;;6.35;1.35;;;18.20;88.70;;;;;;5059822;28;20021;-59
2022/05/24 03:00:45;;;;;;;3.70;1.20;;;18.20;89.00;;;;;;5055044;28;20520;-59
2022/05/24 03:03:11;;;;;;;2.72;0.70;;;18.20;89.10;;;;;;5055182;28;20515;-58
2022/05/24 03:05:36;;;;;;;6.43;1.33;;;18.20;88.80;;;;;;5054939;28;20433;-61
2022/05/24 03:10:46;;;;;;;5.88;1.00;;;18.10;88.10;;;;;;5054524;28;20098;-60
2022/05/24 03:15:56;;;;;;;3.55;0.80;;;18.00;88.20;;;;;;5055271;28;20039;-65
2022/05/24 03:18:22;;;;;;;5.68;1.30;;;18.00;88.60;;;;;;5055274;28;20024;-61
2022/05/24 03:20:48;;;;;;;4.25;1.27;;;18.00;88.20;;;;;;5055011;28;20018;-60
2022/05/24 03:23:15;;;;;;;4.95;1.20;;;18.00;88.40;;;;;;5055083;28;20032;-60
2022/05/24 03:25:41;;;;;;;4.47;1.33;;;17.90;88.20;;;;;;5053550;28;20033;-59
2022/05/24 03:28:07;;;;;;;5.60;1.23;;;18.00;87.40;;;;;;5054805;28;20013;-62
2022/05/24 03:30:38;;;;;;;4.43;1.00;;;18.00;86.70;;;;;;5054817;28;20072;-60
2022/05/24 03:33:04;;;;;;;6.50;1.48;;;18.00;86.80;;;;;;5054687;28;20025;-60
2022/05/24 03:35:30;;;;;;;3.53;0.80;;;17.90;86.50;;;;;;5054644;28;20492;-60
2022/05/24 03:37:55;;;;;;;6.55;1.00;;;17.90;86.60;;;;;;5054554;28;20052;-60
2022/05/24 03:40:21;;;;;;;6.38;1.23;;;17.90;87.20;;;;;;5054724;28;20082;-59
2022/05/24 03:42:47;;;;;;;4.65;0.80;;;18.00;87.20;;;;;;5054268;28;20087;-60
2022/05/24 03:45:13;;;;;;;5.57;1.23;;;18.00;86.80;;;;;;5054495;28;20094;-61
2022/05/24 03:47:39;;;;;;;5.70;1.50;;;17.90;86.40;;;;;;5054237;28;20434;-60
2022/05/24 03:50:06;;;;;;;7.50;1.50;;;17.80;86.50;;;;;;5054628;28;20108;-59
2022/05/24 03:52:32;;;;;;;5.22;1.55;;;17.80;86.60;;;;;;5054002;28;20041;-61
2022/05/24 03:54:57;;;;;;;3.78;1.20;;;17.80;87.20;;;;;;5054592;28;20027;-60
2022/05/24 04:00:09;;;;;;;5.75;0.95;;;17.90;88.10;;;;;;5054474;28;20496;-62
2022/05/24 04:02:34;;;;;;;3.90;1.00;;;17.90;87.60;;;;;;5053937;28;20033;-66
2022/05/24 04:05:00;;;;;;;6.30;1.15;;;17.90;87.60;;;;;;5054064;28;20363;-68
2022/05/24 04:07:26;;;;;;;5.65;1.00;;;17.90;87.80;;;;;;5053965;28;20527;-60
2022/05/24 04:09:51;;;;;;;4.93;1.00;;;17.90;87.40;;;;;;5053741;28;20033;-60
2022/05/24 04:12:17;;;;;;;3.13;0.68;;;17.90;87.50;;;;;;5053589;28;20033;-60
2022/05/24 04:14:42;;;;;;;6.90;0.90;;;17.80;87.50;;;;;;5053922;28;20033;-61
2022/05/24 04:17:08;;;;;;;4.25;1.20;;;17.90;88.20;;;;;;5053729;28;20029;-65
2022/05/24 04:19:33;;;;;;;7.75;1.13;;;17.90;87.70;;;;;;5052557;28;20025;-69
2022/05/24 04:21:59;;;;;;;4.25;0.75;;;17.80;87.30;;;;;;5053821;28;20470;-65
2022/05/24 04:24:24;;;;;;;4.95;1.10;;;17.80;87.30;;;;;;5053409;28;20485;-60
2022/05/24 04:26:50;;;;;;;2.47;0.60;;;17.80;87.30;;;;;;5053622;28;20025;-66
2022/05/24 04:29:16;;;;;;;3.90;0.60;;;17.80;87.40;;;;;;5053642;28;20029;-68
2022/05/24 04:31:41;;;;;;;6.60;1.25;;;17.80;87.80;;;;;;5053743;28;20052;-63
2022/05/24 04:34:07;;;;;;;3.85;0.80;;;17.80;87.80;;;;;;5053430;28;20037;-66
2022/05/24 04:36:33;;;;;;;9.43;1.20;;;17.70;87.50;;;;;;5053262;28;20021;-59
2022/05/24 04:38:59;;;;;;;3.90;1.20;;;17.80;87.30;;;;;;5053162;28;20079;-66
2022/05/24 04:44:09;;;;;;;4.05;0.90;;;17.70;87.70;;;;;;5053293;28;20502;-62
2022/05/24 04:49:21;;;;;;;3.22;0.60;;;17.80;88.00;;;;;;5053628;28;20031;-68
2022/05/24 04:51:47;;;;;;;3.08;0.60;;;17.80;88.10;;;;;;5053299;28;20384;-68
2022/05/24 04:54:13;;;;;;;6.35;0.98;;;17.80;88.60;;;;;;5052792;28;20021;-66
2022/05/24 04:56:38;;;;;;;4.68;1.30;;;17.80;88.20;;;;;;5053284;28;20025;-61
2022/05/24 04:59:04;;;;;;;3.85;0.60;;;17.70;88.00;;;;;;5053176;28;20025;-64
2022/05/24 05:01:30;;;;;;;5.30;1.00;;;17.70;88.30;;;;;;5058177;28;20102;-60
2022/05/24 05:03:56;;;;;;;2.67;0.77;;;17.80;88.20;;;;;;5067341;28;20098;-67
2022/05/24 05:06:21;;;;;;;3.25;0.75;;;17.80;88.70;;;;;;5053243;28;20509;-62
2022/05/24 05:08:47;;;;;;;3.53;0.88;;;17.80;88.40;;;;;;5052603;28;20100;-58
2022/05/24 05:11:13;;;;;;;6.82;1.23;;;17.80;88.50;;;;;;5052544;28;20025;-59
2022/05/24 05:13:38;;;;;;;4.50;1.08;;;17.80;88.40;;;;;;5052766;28;20478;-58
2022/05/24 05:16:04;;;;;;;3.28;0.75;;;17.80;88.60;;;;;;5034901;28;20442;-60
2022/05/24 05:18:30;;;;;;;5.88;0.93;;;17.80;88.60;;;;;;5052764;28;20032;-60
2022/05/24 05:20:55;;;;;;;3.08;1.10;;;17.80;88.80;;;;;;5034876;28;20028;-59
2022/05/24 05:23:21;;;;;;;4.10;1.35;;;17.80;88.50;;;;;;5051533;28;20025;-61
2022/05/24 05:25:47;;;;;;;5.90;1.13;;;17.80;88.50;;;;;;5052622;28;20059;-62
2022/05/24 05:28:14;;;;;;;4.32;1.20;;;17.90;88.70;;;;;;5052939;28;20436;-60
2022/05/24 05:33:37;;;;;;;5.43;1.20;;;17.80;88.30;;;;;;5019086;28;20044;-59
2022/05/24 05:36:03;;;;;;;4.75;0.80;;;17.80;88.60;;;;;;5052942;28;20025;-59
2022/05/24 05:38:31;;;;;;;4.55;1.00;;;17.80;88.50;;;;;;5052582;28;20484;-61
2022/05/24 05:40:57;;;;;;;6.10;0.98;;;17.80;88.80;;;;;;5071662;28;20107;-61
2022/05/24 05:43:23;;;;;;;4.85;0.80;;;17.80;88.60;;;;;;5071334;28;20066;-64
2022/05/24 05:45:53;;;;;;;4.55;0.90;;;17.80;88.60;;;;;;5072957;28;20036;-60
2022/05/24 05:48:19;;;;;;;2.95;0.80;;;17.90;88.60;;;;;;5073902;28;20031;-62
2022/05/24 05:50:44;;;;;;;14.30;1.52;;;17.80;88.60;;;;;;5080780;28;20020;-60
2022/05/24 05:53:10;;;;;;;4.80;1.10;;;17.90;88.90;;;;;;5071969;28;20036;-65
2022/05/24 05:55:38;;;;;;;5.63;0.80;;;17.90;88.90;;;;;;5083209;28;20051;-61
2022/05/24 05:58:04;;;;;;;3.28;0.93;;;18.00;88.70;;;;;;5094954;28;20035;-61
2022/05/24 06:00:30;;;;;;;6.60;1.02;;;18.00;88.30;;;;;;5080411;28;20107;-62
2022/05/24 06:02:56;;;;;;;7.00;0.90;;;18.10;88.30;;;;;;5075148;28;20111;-65
2022/05/24 06:05:21;;;;;;;5.18;0.65;;;18.10;88.20;;;;;;5073307;28;20107;-60
2022/05/24 06:07:47;;;;;;;4.13;0.88;;;18.20;87.90;;;;;;5073039;28;20121;-66
2022/05/24 06:10:13;;;;;;;6.65;0.98;;;18.20;87.80;;;;;;5075776;28;20021;-68
2022/05/24 06:12:39;;;;;;;6.15;1.30;;;18.30;88.20;;;;;;5073917;28;20048;-69
2022/05/24 06:15:05;;;;;;;4.43;0.90;;;18.30;86.70;;;;;;5073912;28;20098;-60
2022/05/24 06:17:31;;;;;;;3.47;0.82;;;18.30;86.00;;;;;;5075996;28;20017;-68
2022/05/24 06:20:00;;;;;;;5.45;1.27;;;18.30;85.90;;;;;;5075850;28;20025;-67
2022/05/24 06:22:26;;;;;;;4.53;0.93;;;18.30;85.10;;;;;;5075531;28;20051;-65
2022/05/24 06:24:51;;;;;;;5.18;0.90;;;18.30;84.20;;;;;;5075759;28;20390;-64
2022/05/24 06:27:22;;;;;;;5.90;1.05;;;18.30;84.00;;;;;;5069953;28;20115;-65
2022/05/24 06:29:47;;;;;;;5.40;1.00;;;18.30;83.80;;;;;;5073331;28;20474;-67
2022/05/24 06:32:13;;;;;;;5.95;1.13;;;18.30;84.50;;;;;;5075637;28;20031;-60
2022/05/24 06:34:38;;;;;;;4.25;0.90;;;18.30;83.90;;;;;;5075184;28;20040;-66
2022/05/24 06:37:04;;;;;;;4.03;0.80;;;18.30;84.30;;;;;;5075242;28;20029;-67
2022/05/24 06:39:30;;;;;;;3.83;0.60;;;18.30;85.60;;;;;;5073704;28;20534;-67
2022/05/24 06:41:55;;;;;;;3.28;0.70;;;18.40;85.30;;;;;;5075459;28;20542;-64
2022/05/24 06:44:21;;;;;;;3.63;0.70;;;18.40;85.30;;;;;;5080216;28;20219;-66
2022/05/24 06:46:46;;;;;;;4.15;0.77;;;18.50;85.40;;;;;;5074179;28;20037;-69
2022/05/24 06:49:12;;;;;;;3.97;1.00;;;18.50;85.00;;;;;;5074837;28;20020;-67
2022/05/24 06:51:37;;;;;;;4.65;1.33;;;18.50;84.90;;;;;;5073969;28;20027;-69
2022/05/24 06:54:04;;;;;;;3.60;0.80;;;18.60;84.90;;;;;;5075188;28;20396;-70
2022/05/24 06:56:29;;;;;;;5.32;0.93;;;18.60;85.60;;;;;;5076074;28;20039;-63
2022/05/24 07:04:23;;;;;;;12.57;1.27;;;18.70;86.20;;;;;;5071438;28;20043;-68
2022/05/24 07:06:49;;;;;;;5.63;0.85;;;18.80;86.30;;;;;;5072487;28;20036;-68
2022/05/24 07:09:14;;;;;;;4.10;0.75;;;18.80;86.60;;;;;;5074322;28;20017;-67
2022/05/24 07:11:40;;;;;;;7.90;1.05;;;18.80;86.00;;;;;;5072657;28;20031;-68
2022/05/24 07:14:05;;;;;;;4.80;0.80;;;18.90;85.00;;;;;;5076662;28;20032;-66
2022/05/24 07:16:31;;;;;;;6.18;0.93;;;18.90;85.30;;;;;;5074067;28;20043;-66
2022/05/24 07:18:56;;;;;;;7.35;1.00;;;18.90;84.60;;;;;;5072807;28;20036;-66
2022/05/24 07:21:22;;;;;;;14.45;1.30;;;19.00;84.50;;;;;;5074694;28;20469;-65
2022/05/24 07:23:47;;;;;;;6.32;1.33;;;19.10;83.90;;;;;;5068231;28;20025;-67
2022/05/24 07:26:16;;;;;;;4.85;0.90;;;19.10;83.90;;;;;;5062473;28;20028;-61
2022/05/24 07:28:41;;;;;;;6.93;0.75;;;19.10;82.50;;;;;;5074245;28;20028;-60
2022/05/24 07:31:08;;;;;;;9.07;0.80;;;19.10;82.70;;;;;;5074577;28;20099;-61
2022/05/24 07:33:33;;;;;;;11.05;0.90;;;19.10;83.00;;;;;;5074311;28;20028;-66
2022/05/24 07:35:59;;;;;;;6.57;0.68;;;19.20;82.40;;;;;;5072730;28;20040;-61
2022/05/24 07:38:25;;;;;;;7.63;0.82;;;19.20;82.80;;;;;;5074647;28;20496;-62
2022/05/24 07:46:19;;;;;;;5.13;1.33;;;19.30;82.20;;;;;;5073874;28;20519;-69
2022/05/24 07:48:44;;;;;;;2.78;0.70;;;19.30;81.30;;;;;;5073499;28;20107;-68
2022/05/24 07:51:10;;;;;;;3.25;0.60;;;19.40;82.00;;;;;;5074638;28;20465;-68
2022/05/24 07:53:36;;;;;;;3.92;0.50;;;19.40;82.00;;;;;;5073210;28;20485;-66
2022/05/24 07:56:02;;;;;;;4.70;0.95;;;19.40;81.50;;;;;;5073980;28;20020;-69
2022/05/24 07:58:28;;;;;;;2.78;0.55;;;19.40;81.80;;;;;;5073749;28;20465;-70
2022/05/24 08:00:55;;;;;;;2.83;0.50;;;19.50;80.60;;;;;;5073518;28;20103;-70
2022/05/24 08:03:21;;;;;;;4.93;0.90;;;19.40;80.90;;;;;;5073393;28;20531;-66
2022/05/24 08:05:47;;;;;;;3.05;0.77;;;19.50;81.00;;;;;;5073593;28;20024;-66
2022/05/24 08:08:14;;;;;;;2.35;0.50;;;19.50;80.20;;;;;;5073374;28;20029;-60
2022/05/24 08:10:41;;;;;;;3.28;0.50;;;19.60;79.40;;;;;;5073964;28;20021;-60
2022/05/24 08:13:09;;;;;;;2.30;0.55;;;19.60;80.60;;;;;;5073380;28;20480;-62
2022/05/24 08:15:35;;;;;;;2.03;0.50;;;19.60;80.30;;;;;;5073921;28;20047;-63
2022/05/24 08:18:01;;;;;;;1.83;0.40;;;19.60;79.80;;;;;;5073158;28;20063;-63
2022/05/24 08:20:27;;;;;;;2.50;0.40;;;19.60;79.90;;;;;;5059811;28;20450;-58
2022/05/24 08:22:53;;;;;;;3.08;0.70;;;19.70;80.00;;;;;;5062059;28;20116;-59
2022/05/24 08:25:19;;;;;;;1.05;0.40;;;19.70;79.90;;;;;;5072994;28;20103;-59
2022/05/24 08:27:44;;;;;;;2.20;0.60;;;19.70;79.50;;;;;;5070030;28;20546;-61
2022/05/24 08:30:13;;;;;;;3.15;0.40;;;19.70;79.50;;;;;;5073689;28;20427;-61
2022/05/24 08:32:39;;;;;;;2.15;0.50;;;19.80;78.80;;;;;;5072743;28;20099;-61
2022/05/24 08:35:06;;;;;;;5.82;0.50;;;19.80;78.90;;;;;;5073458;28;20032;-60
2022/05/24 08:37:31;;;;;;;2.38;0.75;;;19.90;78.90;;;;;;5057923;28;20386;-61
2022/05/24 08:39:59;;;;;;;1.98;0.40;;;19.80;78.70;;;;;;5062746;28;20031;-59
2022/05/24 08:43:13;;;;;;;3.47;0.70;;;19.90;78.50;;;;;;5067420;28;20028;-58
2022/05/24 08:48:44;;;;;;;2.05;0.43;;;19.90;78.40;;;;;;5071150;28;20423;-59
2022/05/24 08:51:42;;;;;;;4.00;0.47;;;19.90;78.00;;;;;;5071120;28;20032;-71
2022/05/24 08:54:15;;;;;;;3.42;0.60;;;20.00;77.60;;;;;;5054726;28;20040;-64
2022/05/24 08:56:43;;;;;;;1.27;0.30;;;19.90;77.00;;;;;;5065884;28;20079;-68
2022/05/24 08:59:17;;;;;;;2.20;0.30;;;20.00;77.40;;;;;;5072740;28;20062;-64
2022/05/24 09:01:45;;;;;;;3.75;0.45;;;20.00;75.90;;;;;;5072590;28;20074;-65
2022/05/24 09:04:12;;;;;;;2.75;0.63;;;20.10;76.50;;;;;;5055403;28;20095;-60
2022/05/24 09:06:53;;;;;;;2.05;0.40;;;20.00;76.90;;;;;;5072579;28;20074;-60
2022/05/24 09:09:25;;;;;;;1.50;0.25;;;20.10;76.80;;;;;;5064281;28;20121;-65
2022/05/24 09:12:07;;;;;;;3.17;0.55;;;20.00;76.40;;;;;;5065616;28;20029;-67
2022/05/24 09:14:51;;;;;;;2.42;0.57;;;20.10;76.30;;;;;;5065633;28;20037;-67
2022/05/24 09:17:48;;;;;;;2.45;0.45;;;20.10;76.00;;;;;;5058791;28;20029;-67
2022/05/24 09:20:28;;;;;;;1.00;0.30;;;20.20;76.00;;;;;;5067949;28;20385;-59
2022/05/24 09:23:30;;;;;;;2.33;0.35;;;20.10;75.90;;;;;;5063654;28;20054;-69
2022/05/24 09:26:01;;;;;;;1.77;0.30;;;20.10;75.80;;;;;;5076642;28;20029;-64
2022/05/24 09:28:48;;;;;;;1.77;0.52;;;20.10;75.90;;;;;;5076033;28;20036;-59
2022/05/24 09:31:41;;;;;;;4.72;0.30;;;20.20;75.60;;;;;;5058972;28;20035;-61
2022/05/24 09:34:30;;;;;;;3.15;0.40;;;20.20;75.60;;;;;;5076822;28;20036;-60
2022/05/24 09:37:01;;;;;;;2.65;0.22;;;20.20;75.30;;;;;;5075533;28;20021;-60
2022/05/24 09:39:36;;;;;;;3.53;0.60;;;20.20;75.20;;;;;;5074109;28;20042;-58
2022/05/24 09:42:22;;;;;;;1.55;0.35;;;20.20;74.60;;;;;;5076543;28;20116;-62
2022/05/24 09:44:57;;;;;;;2.97;0.40;;;20.30;74.60;;;;;;5075924;28;20035;-63
2022/05/24 09:47:32;;;;;;;2.30;0.38;;;20.30;74.40;;;;;;5076440;28;20024;-60
2022/05/24 09:50:23;;;;;;;2.75;0.40;;;20.30;74.30;;;;;;5076681;28;20081;-66
2022/05/24 09:53:08;;;;;;;1.73;0.20;;;20.30;74.30;;;;;;5058966;28;20044;-62
2022/05/24 09:55:36;;;;;;;2.58;0.50;;;20.40;74.30;;;;;;5061809;28;20036;-59
2022/05/24 09:58:27;;;;;;;4.68;0.55;;;20.30;74.10;;;;;;5075029;28;20017;-59
2022/05/24 10:01:12;;;;;;;2.55;0.50;;;20.40;74.20;;;;;;5071220;28;20055;-64
2022/05/24 10:03:39;;;;;;;1.50;0.40;;;20.40;74.00;;;;;;5075828;28;20032;-59
2022/05/24 10:06:23;;;;;;;2.83;0.30;;;20.40;73.90;;;;;;5075791;28;20020;-59
2022/05/24 10:08:59;;;;;;;2.95;0.30;;;20.40;73.30;;;;;;5076250;28;20027;-59
2022/05/24 10:11:50;;;;;;;2.65;0.35;;;20.40;73.50;;;;;;5075161;28;20106;-60
2022/05/24 10:14:34;;;;;;;4.20;0.43;;;20.40;73.10;;;;;;5062568;28;20421;-60
2022/05/24 10:17:17;;;;;;;1.67;0.30;;;20.40;73.40;;;;;;5074897;28;20104;-59
2022/05/24 10:20:09;;;;;;;1.30;0.40;;;20.40;73.50;;;;;;5079653;28;20154;-63
2022/05/24 10:22:55;;;;;;;1.48;0.20;;;20.40;72.10;;;;;;5075093;28;20017;-61
2022/05/24 10:25:27;;;;;;;2.25;0.35;;;20.50;72.40;;;;;;5075734;28;20063;-59
2022/05/24 10:28:04;;;;;;;1.88;0.25;;;20.40;73.00;;;;;;5074726;28;20033;-60
2022/05/24 10:31:03;;;;;;;2.78;0.20;;;20.50;74.20;;;;;;5074387;28;20108;-66
2022/05/24 10:39:43;;;;;;;1.67;0.03;;;20.50;73.90;;;;;;5075611;28;20036;-68
2022/05/24 10:42:30;;;;;;;1.83;0.63;;;20.50;74.00;;;;;;5075503;28;20025;-60
2022/05/24 10:45:06;;;;;;;2.85;0.68;;;20.50;73.90;;;;;;5073264;28;20029;-66
2022/05/24 10:47:43;;;;;;;1.13;0.30;;;20.50;73.70;;;;;;5076489;28;20029;-67
2022/05/24 10:50:39;;;;;;;2.35;0.55;;;20.50;74.80;;;;;;5074528;28;20024;-69
2022/05/24 10:53:11;;;;;;;5.35;0.57;;;20.50;74.50;;;;;;5071591;28;20032;-68
2022/05/24 10:55:49;;;;;;;4.07;0.32;;;20.50;75.20;;;;;;5075231;28;20020;-70
2022/05/24 10:58:17;;;;;;;2.08;0.30;;;20.60;75.90;;;;;;5075406;28;20104;-68
2022/05/24 11:00:46;;;;;;;1.48;0.17;;;20.50;76.40;;;;;;5075327;28;20031;-69
2022/05/24 11:03:16;;;;;;;1.55;0.20;;;20.60;77.10;;;;;;5075181;28;20500;-70
2022/05/24 11:06:05;;;;;;;3.92;0.20;;;20.60;76.00;;;;;;5075009;28;20012;-69
2022/05/24 11:08:49;;;;;;;1.70;0.22;;;20.60;75.00;;;;;;5073853;28;20050;-68
2022/05/24 11:11:30;;;;;;;3.50;0.52;;;20.60;75.70;;;;;;5069268;28;20028;-69
2022/05/24 11:14:08;;;;;;;5.75;1.20;;;20.60;77.00;;;;;;5066411;28;20152;-70
2022/05/24 11:16:44;;;;;;;1.90;0.50;;;20.50;77.60;;;;;;5071124;28;20024;-70
2022/05/24 11:19:28;;;;;;;3.97;0.60;;;20.50;79.60;;;;;;5072715;28;20372;-70
2022/05/24 11:21:59;;;;;;;1.65;0.60;;;20.50;80.40;;;;;;5074019;28;20028;-64
2022/05/24 11:24:42;;;;;;;1.50;0.50;;;20.50;81.70;;;;;;5073819;28;20029;-60
2022/05/24 11:27:13;;;;;;;1.58;0.52;;;20.50;83.20;;;;;;5068367;28;20032;-69
2022/05/24 11:29:49;;;;;;;1.35;0.55;;;20.50;81.60;;;;;;5062368;28;20360;-59
2022/05/24 11:32:40;;;;;;;2.88;0.50;;;20.50;80.50;;;;;;5072426;28;20481;-60
2022/05/24 11:35:11;;;;;;;1.13;0.40;;;20.50;81.60;;;;;;5042482;28;20024;-60
2022/05/24 11:37:42;;;;;;;1.33;0.40;;;20.50;81.30;;;;;;5073175;28;20021;-67
2022/05/24 11:40:31;;;;;;;1.60;0.50;;;20.50;82.10;;;;;;5071244;28;20024;-67
2022/05/24 11:43:03;;;;;;;1.80;0.25;;;20.50;81.30;;;;;;5072677;28;20031;-62
2022/05/24 11:45:28;;;;;;;2.80;0.50;;;20.50;81.10;;;;;;5073145;28;20028;-67
2022/05/24 11:47:54;;;;;;;1.30;0.30;;;20.60;80.80;;;;;;5070867;28;20090;-59
2022/05/24 11:50:31;;;;;;;1.30;0.32;;;20.50;78.90;;;;;;5083026;28;20111;-71
2022/05/24 11:53:05;;;;;;;2.20;0.40;;;20.50;79.20;;;;;;5072716;28;20021;-65
2022/05/24 11:55:48;;;;;;;1.30;0.40;;;20.60;79.50;;;;;;5073181;28;20068;-69
2022/05/24 11:58:22;;;;;;;3.78;0.50;;;20.60;79.30;;;;;;5073274;28;20021;-68
2022/05/24 12:01:04;;;;;;;4.75;0.57;;;20.60;78.90;;;;;;5074133;28;20105;-69
2022/05/24 12:07:54;;;;;;;1.38;0.43;;;20.60;78.50;;;;;;5070089;28;20043;-67
2022/05/24 12:10:23;;;;;;;1.38;0.47;;;20.60;78.90;;;;;;5070906;28;20031;-69
2022/05/24 12:12:52;;;;;;;1.35;0.28;;;20.60;78.80;;;;;;5072374;28;20041;-67
2022/05/24 12:15:25;;;;;;;5.05;0.30;;;20.60;78.60;;;;;;5073471;28;20082;-60
2022/05/24 12:17:59;;;;;;;0.90;0.20;;;20.60;78.60;;;;;;5068369;28;20492;-70
2022/05/24 12:20:46;;;;;;;1.63;0.55;;;20.70;78.60;;;;;;5075655;28;20033;-69
2022/05/24 12:23:30;;;;;;;2.83;0.30;;;20.70;78.40;;;;;;5072879;28;20442;-69
2022/05/24 12:26:13;;;;;;;1.63;0.57;;;20.70;78.40;;;;;;5073331;28;20112;-68
2022/05/24 12:28:38;;;;;;;2.35;0.30;;;20.70;78.20;;;;;;5076549;28;20369;-68
2022/05/24 12:31:13;;;;;;;2.33;0.20;;;20.70;78.40;;;;;;5073132;28;20024;-70
2022/05/24 12:33:47;;;;;;;1.55;0.40;;;20.70;78.20;;;;;;5073094;28;20040;-70
2022/05/24 12:36:22;;;;;;;2.28;0.20;;;20.70;78.10;;;;;;5073345;28;20028;-70
2022/05/24 12:39:09;;;;;;;1.38;0.28;;;20.70;77.90;;;;;;5072912;28;20028;-69
2022/05/24 12:41:41;;;;;;;3.72;0.30;;;20.70;78.30;;;;;;5073157;28;20028;-69
2022/05/24 12:44:17;;;;;;;1.73;0.30;;;20.70;78.60;;;;;;5072921;28;20049;-70
2022/05/24 12:46:48;;;;;;;2.67;0.30;;;20.70;79.00;;;;;;5072949;28;20017;-70
2022/05/24 12:49:26;;;;;;;2.38;0.30;;;20.70;79.70;;;;;;5058813;28;20021;-71
2022/05/24 12:52:10;;;;;;;1.67;0.35;;;20.80;80.10;;;;;;5055845;28;20043;-71
2022/05/24 12:54:42;;;;;;;5.85;0.40;;;20.70;80.30;;;;;;5072761;28;20516;-68
2022/05/24 12:57:17;;;;;;;3.00;0.45;;;20.80;81.90;;;;;;5073148;28;20086;-70
2022/05/24 12:59:50;;;;;;;2.20;0.40;;;20.80;81.40;;;;;;5080396;28;20024;-70
2022/05/24 13:02:33;;;;;;;1.10;0.20;;;20.70;81.10;;;;;;5073290;28;20044;-70
2022/05/24 13:05:04;;;;;;;1.52;0.20;;;20.80;81.40;;;;;;5077580;28;20449;-71
2022/05/24 13:07:38;;;;;;;0.82;0.22;;;20.80;81.40;;;;;;5082726;28;20020;-70
2022/05/24 13:10:19;;;;;;;2.72;0.40;;;20.80;81.10;;;;;;5073816;28;20028;-70
2022/05/24 13:12:47;;;;;;;2.17;0.28;;;20.80;80.90;;;;;;5080257;28;20016;-71
2022/05/24 13:15:18;;;;;;;1.00;0.20;;;20.80;80.40;;;;;;5093208;28;20059;-70
2022/05/24 13:17:46;;;;;;;1.85;0.30;;;20.80;80.10;;;;;;5093201;28;20446;-70
2022/05/24 13:20:29;;;;;;;1.20;0.20;;;20.80;79.10;;;;;;5093039;28;20488;-70
2022/05/24 13:23:26;;;;;;;0.90;0.10;;;20.90;79.20;;;;;;5092787;28;20039;-70
2022/05/24 13:26:11;;;;;;;1.70;0.30;;;20.80;79.00;;;;;;5050060;28;20056;-62
2022/05/24 13:28:48;;;;;;;1.38;0.17;;;20.90;78.70;;;;;;5052693;28;20029;-70
2022/05/24 13:34:17;;;;;;;1.55;0.20;;;20.90;78.50;;;;;;5057022;28;20051;-71
2022/05/24 13:36:49;;;;;;;0.82;0.17;;;20.80;78.20;;;;;;5072125;28;20020;-66
2022/05/24 13:39:23;;;;;;;3.03;0.47;;;20.80;76.50;;;;;;5072292;28;20103;-68
2022/05/24 13:42:09;;;;;;;2.08;0.40;;;20.90;76.60;;;;;;5054069;28;20024;-64
2022/05/24 13:45:02;;;;;;;1.15;0.40;;;20.80;75.40;;;;;;5072320;28;20111;-68
2022/05/24 13:47:43;;;;;;;1.83;0.57;;;20.80;75.20;;;;;;5052465;28;20098;-69
2022/05/24 13:50:26;;;;;;;1.25;0.35;;;20.80;74.50;;;;;;5052179;28;20025;-69
2022/05/24 13:52:56;;;;;;;1.77;0.28;;;20.80;74.60;;;;;;5061841;28;20528;-65
2022/05/24 13:55:24;;;;;;;2.25;0.55;;;20.80;74.60;;;;;;5072142;28;20029;-60
2022/05/24 13:58:18;;;;;;;3.65;0.60;;;20.80;76.70;;;;;;5072234;28;20103;-62
2022/05/24 14:00:45;;;;;;;2.10;0.50;;;20.70;77.50;;;;;;5070522;28;20366;-61
2022/05/24 14:03:42;;;;;;;5.20;0.55;;;20.70;78.00;;;;;;5069870;28;20427;-66